createdAt,value
2023-02-18T00:00:27.780Z,74.78
2023-02-18T00:02:55.805Z,74.71
2023-02-18T00:05:22.907Z,74.94
2023-02-18T00:07:49.405Z,74.93
2023-02-18T00:10:16.671Z,74.57
2023-02-18T00:12:43.110Z,74.55
2023-02-18T00:15:10.132Z,74.49
2023-02-18T00:17:37.551Z,74.45
2023-02-18T00:20:06.029Z,74.44
2023-02-18T00:22:32.413Z,74.08
2023-02-18T00:24:58.879Z,74.23
2023-02-18T00:27:25.287Z,74.09
2023-02-18T00:29:51.675Z,74.13
2023-02-18T00:32:18.200Z,73.91
2023-02-18T00:34:44.716Z,73.68
2023-02-18T00:37:11.155Z,73.85
2023-02-18T00:39:37.612Z,73.87
2023-02-18T00:42:04.181Z,73.97
2023-02-18T00:44:30.630Z,74.13
2023-02-18T00:46:57.042Z,74.24
2023-02-18T00:49:23.537Z,74.17
2023-02-18T00:51:50.428Z,73.95
2023-02-18T00:54:16.876Z,74.30
2023-02-18T00:56:43.271Z,74.26
2023-02-18T00:59:09.680Z,74.32
2023-02-18T01:01:36.211Z,74.31
2023-02-18T01:04:02.648Z,74.61
2023-02-18T01:06:29.267Z,74.59
2023-02-18T01:08:55.761Z,74.51
2023-02-18T01:11:22.809Z,74.83
2023-02-18T01:13:49.379Z,74.76
2023-02-18T01:16:17.152Z,74.76
2023-02-18T01:18:43.696Z,74.41
2023-02-18T01:21:10.945Z,74.72
2023-02-18T01:23:41.416Z,75.36
2023-02-18T01:26:08.519Z,75.12
2023-02-18T01:28:35.496Z,75.04
2023-02-18T01:31:07.893Z,75.41
2023-02-18T01:33:34.899Z,75.45
2023-02-18T01:36:01.656Z,75.38
2023-02-18T01:38:28.415Z,75.20
2023-02-18T01:40:54.975Z,74.86
2023-02-18T01:43:22.265Z,75.06
2023-02-18T01:46:07.720Z,75.29
2023-02-18T01:48:48.646Z,75.40
2023-02-18T01:51:20.222Z,75.49
2023-02-18T01:53:48.840Z,75.41
2023-02-18T01:56:22.828Z,75.97
2023-02-18T01:58:50.784Z,75.60
2023-02-18T02:01:17.350Z,76.20
2023-02-18T02:03:43.757Z,76.07
2023-02-18T02:06:20.313Z,76.91
2023-02-18T02:08:49.138Z,76.28
2023-02-18T02:11:38.999Z,76.62
2023-02-18T02:14:25.741Z,76.48
2023-02-18T02:17:11.318Z,76.89
2023-02-18T02:19:56.520Z,76.33
2023-02-18T02:22:29.106Z,76.83
2023-02-18T02:25:37.449Z,76.93
2023-02-18T02:28:23.392Z,76.93
2023-02-18T02:30:57.169Z,76.84
2023-02-18T02:34:08.763Z,76.73
2023-02-18T02:36:35.088Z,75.96
2023-02-18T02:39:13.785Z,76.05
2023-02-18T02:42:00.417Z,76.39
2023-02-18T02:44:39.286Z,76.21
2023-02-18T02:47:18.065Z,75.92
2023-02-18T02:50:00.948Z,75.98
2023-02-18T02:52:33.082Z,76.11
2023-02-18T02:54:59.732Z,75.89
2023-02-18T02:57:26.123Z,75.69
2023-02-18T02:59:58.172Z,75.68
2023-02-18T03:02:40.730Z,76.02
2023-02-18T03:05:26.077Z,75.97
2023-02-18T03:08:17.220Z,76.08
2023-02-18T03:11:02.363Z,76.04
2023-02-18T03:13:56.388Z,76.17
2023-02-18T03:16:25.674Z,75.68
2023-02-18T03:19:09.952Z,76.17
2023-02-18T03:22:01.967Z,75.96
2023-02-18T03:24:39.187Z,75.90
2023-02-18T03:27:12.333Z,75.73
2023-02-18T03:29:40.900Z,75.65
2023-02-18T03:32:11.260Z,75.61
2023-02-18T03:34:45.957Z,75.42
2023-02-18T03:37:14.326Z,75.46
2023-02-18T03:39:44.460Z,75.45
2023-02-18T03:42:11.213Z,75.55
2023-02-18T03:44:37.627Z,75.65
2023-02-18T03:47:04.329Z,74.90
2023-02-18T03:49:30.736Z,75.05
2023-02-18T03:51:57.121Z,74.65
2023-02-18T03:54:23.513Z,74.47
2023-02-18T03:56:49.928Z,74.33
2023-02-18T03:59:16.355Z,74.35
2023-02-18T04:01:42.847Z,74.24
2023-02-18T04:04:09.471Z,74.38
2023-02-18T04:06:36.393Z,74.12
2023-02-18T04:09:08.671Z,74.51
2023-02-18T04:11:39.503Z,75.02
2023-02-18T04:14:07.161Z,75.07
2023-02-18T04:16:33.828Z,75.26
2023-02-18T04:19:00.301Z,75.64
2023-02-18T04:21:26.713Z,75.98
2023-02-18T04:23:53.096Z,76.07
2023-02-18T04:26:19.598Z,76.63
2023-02-18T04:28:46.130Z,76.99
2023-02-18T04:31:12.652Z,77.26
2023-02-18T04:33:39.098Z,77.62
2023-02-18T04:36:06.241Z,78.03
2023-02-18T04:38:32.846Z,78.17
2023-02-18T04:40:59.352Z,78.52
2023-02-18T04:43:25.808Z,78.33
2023-02-18T04:45:52.232Z,78.98
2023-02-18T04:48:18.817Z,79.39
2023-02-18T04:50:45.380Z,79.29
2023-02-18T04:53:11.823Z,79.65
2023-02-18T04:55:38.224Z,79.70
2023-02-18T04:58:04.821Z,80.15
2023-02-18T05:00:31.253Z,80.28
2023-02-18T05:02:57.707Z,80.25
2023-02-18T05:05:24.133Z,80.57
2023-02-18T05:07:50.572Z,80.66
2023-02-18T05:10:17.637Z,81.15
2023-02-18T05:12:44.205Z,80.85
2023-02-18T05:15:10.751Z,81.13
2023-02-18T05:17:37.309Z,81.40
2023-02-18T05:20:05.004Z,82.01
2023-02-18T05:22:31.444Z,82.10
2023-02-18T05:24:57.975Z,82.16
2023-02-18T05:27:24.499Z,82.85
2023-02-18T05:29:50.972Z,82.56
2023-02-18T05:32:17.501Z,83.03
2023-02-18T05:34:44.053Z,83.32
2023-02-18T05:37:10.617Z,83.92
2023-02-18T05:39:37.193Z,84.65
2023-02-18T05:42:03.711Z,84.23
2023-02-18T05:44:30.458Z,84.54
2023-02-18T05:47:17.327Z,85.70
2023-02-18T05:49:44.150Z,85.19
2023-02-18T05:52:11.409Z,85.86
2023-02-18T05:54:38.785Z,85.67
2023-02-18T05:57:05.622Z,85.99
2023-02-18T05:59:32.223Z,86.41
2023-02-18T06:01:58.660Z,86.80
2023-02-18T06:04:25.096Z,86.80
2023-02-18T06:06:51.885Z,87.38
2023-02-18T06:09:18.342Z,87.18
2023-02-18T06:11:44.774Z,87.06
2023-02-18T06:14:11.304Z,87.39
2023-02-18T06:16:37.759Z,87.00
2023-02-18T06:19:05.337Z,86.95
2023-02-18T06:21:31.789Z,87.21
2023-02-18T06:23:58.254Z,87.24
2023-02-18T06:26:25.036Z,87.25
2023-02-18T06:28:51.678Z,87.12
2023-02-18T06:31:18.244Z,87.55
2023-02-18T06:33:44.918Z,87.67
2023-02-18T06:36:12.399Z,88.10
2023-02-18T06:38:44.686Z,88.81
2023-02-18T06:41:13.186Z,88.38
2023-02-18T06:43:39.793Z,88.20
2023-02-18T06:46:07.207Z,88.25
2023-02-18T06:48:34.033Z,88.43
2023-02-18T06:51:00.449Z,88.53
2023-02-18T06:53:26.863Z,88.68
2023-02-18T06:55:53.365Z,88.69
2023-02-18T06:58:19.797Z,88.95
2023-02-18T07:00:46.312Z,88.78
2023-02-18T07:03:14.166Z,88.61
2023-02-18T07:05:41.352Z,89.02
2023-02-18T07:08:08.221Z,88.72
2023-02-18T07:10:34.619Z,89.03
2023-02-18T07:13:01.080Z,89.12
2023-02-18T07:15:27.975Z,88.95
2023-02-18T07:17:54.738Z,89.30
2023-02-18T07:20:22.059Z,89.02
2023-02-18T07:22:48.991Z,89.45
2023-02-18T07:25:15.568Z,89.29
2023-02-18T07:27:42.371Z,89.28
2023-02-18T07:30:09.396Z,89.16
2023-02-18T07:32:36.530Z,89.16
2023-02-18T07:35:04.851Z,89.09
2023-02-18T07:37:31.879Z,89.04
2023-02-18T07:39:58.520Z,89.26
2023-02-18T07:42:24.968Z,89.42
2023-02-18T07:44:51.529Z,89.04
2023-02-18T07:47:19.753Z,89.44
2023-02-18T07:49:46.843Z,89.31
2023-02-18T07:52:14.837Z,89.24
2023-02-18T07:54:41.417Z,89.48
2023-02-18T07:57:07.882Z,89.28
2023-02-18T07:59:34.384Z,89.64
2023-02-18T08:02:00.854Z,89.76
2023-02-18T08:04:27.329Z,89.65
2023-02-18T08:06:53.755Z,90.02
2023-02-18T08:09:20.197Z,89.79
2023-02-18T08:11:46.618Z,89.82
2023-02-18T08:14:13.183Z,89.98
2023-02-18T08:16:39.749Z,89.74
2023-02-18T08:19:06.247Z,89.98
2023-02-18T08:21:32.850Z,89.92
2023-02-18T08:24:00.034Z,89.91
2023-02-18T08:26:26.812Z,89.87
2023-02-18T08:28:53.220Z,89.51
2023-02-18T08:31:26.192Z,89.91
2023-02-18T08:33:54.845Z,89.50
2023-02-18T08:36:22.180Z,89.73
2023-02-18T08:38:48.861Z,89.33
2023-02-18T08:41:15.843Z,89.57
2023-02-18T08:43:42.937Z,89.54
2023-02-18T08:46:16.221Z,89.76
2023-02-18T08:48:55.873Z,89.68
2023-02-18T08:51:23.149Z,89.81
2023-02-18T08:53:49.831Z,89.86
2023-02-18T08:56:17.682Z,89.74
2023-02-18T08:58:44.587Z,89.83
2023-02-18T09:01:12.410Z,90.09
2023-02-18T09:03:39.170Z,89.47
2023-02-18T09:06:06.198Z,89.61
2023-02-18T09:08:32.837Z,89.90
2023-02-18T09:11:01.587Z,90.06
2023-02-18T09:13:28.430Z,90.24
2023-02-18T09:16:04.900Z,90.89
2023-02-18T09:18:32.491Z,90.42
2023-02-18T09:21:00.165Z,90.66
2023-02-18T09:23:28.634Z,90.64
2023-02-18T09:25:55.641Z,90.48
2023-02-18T09:28:22.544Z,90.40
2023-02-18T09:30:49.039Z,90.14
2023-02-18T09:33:16.599Z,90.08
2023-02-18T09:35:45.543Z,90.32
2023-02-18T09:38:14.380Z,90.40
2023-02-18T09:40:45.389Z,91.30
2023-02-18T09:43:23.549Z,92.09
2023-02-18T09:45:53.114Z,91.49
2023-02-18T09:48:26.708Z,91.32
2023-02-18T09:50:53.750Z,91.42
2023-02-18T09:53:22.299Z,91.31
2023-02-18T09:55:50.830Z,91.26
2023-02-18T09:58:21.205Z,91.78
2023-02-18T10:00:52.996Z,91.98
2023-02-18T10:03:21.342Z,91.88
2023-02-18T10:06:02.830Z,93.00
2023-02-18T10:08:34.941Z,91.87
2023-02-18T10:11:01.837Z,91.86
2023-02-18T10:13:30.999Z,92.31
2023-02-18T10:15:57.516Z,92.15
2023-02-18T10:18:41.944Z,93.35
2023-02-18T10:21:19.351Z,92.84
2023-02-18T10:24:00.125Z,93.55
2023-02-18T10:26:27.277Z,92.83
2023-02-18T10:28:53.711Z,92.68
2023-02-18T10:31:34.252Z,93.88
2023-02-18T10:34:06.370Z,93.04
2023-02-18T10:36:49.571Z,93.84
2023-02-18T10:39:40.777Z,94.52
2023-02-18T10:42:45.643Z,95.39
2023-02-18T10:45:30.444Z,95.37
2023-02-18T10:48:12.045Z,95.34
2023-02-18T10:50:40.817Z,94.89
2023-02-18T10:53:44.144Z,96.55
2023-02-18T10:56:38.631Z,96.27
2023-02-18T10:59:11.362Z,94.90
2023-02-18T11:01:39.748Z,93.79
2023-02-18T11:04:17.814Z,93.98
2023-02-18T11:06:51.396Z,92.84
2023-02-18T11:09:36.591Z,94.32
2023-02-18T11:12:21.952Z,94.42
2023-02-18T11:15:10.138Z,94.12
2023-02-18T11:17:39.607Z,94.08
2023-02-18T11:20:23.811Z,95.39
2023-02-18T11:22:51.134Z,94.67
2023-02-18T11:25:22.778Z,94.97
2023-02-18T11:27:54.978Z,95.49
2023-02-18T11:30:23.383Z,95.49
2023-02-18T11:32:54.067Z,95.36
2023-02-18T11:35:23.996Z,95.54
2023-02-18T11:37:51.276Z,95.65
2023-02-18T11:40:31.375Z,97.25
2023-02-18T11:43:19.314Z,98.36
2023-02-18T11:45:46.848Z,98.38
2023-02-18T11:48:24.128Z,100.00
2023-02-18T11:50:53.429Z,100.00
2023-02-18T11:53:37.931Z,100.00
2023-02-18T11:56:16.504Z,100.00
2023-02-18T11:58:47.633Z,100.00
2023-02-18T12:01:40.620Z,100.00
2023-02-18T12:04:14.753Z,100.00
2023-02-18T12:07:05.564Z,100.00
2023-02-18T12:09:38.533Z,100.00
2023-02-18T12:12:48.282Z,100.00
2023-02-18T12:15:20.252Z,100.00
2023-02-18T12:18:04.290Z,100.00
2023-02-18T12:20:59.386Z,100.00
2023-02-18T12:23:52.558Z,100.00
2023-02-18T12:26:25.015Z,100.00
2023-02-18T12:29:17.647Z,100.00
2023-02-18T12:32:05.139Z,100.00
2023-02-18T12:34:39.652Z,99.81
2023-02-18T12:37:52.136Z,100.00
2023-02-18T12:40:57.389Z,100.00
2023-02-18T12:43:33.218Z,99.64
2023-02-18T12:46:21.881Z,98.85
2023-02-18T12:49:23.786Z,100.00
2023-02-18T12:52:04.056Z,100.00
2023-02-18T12:54:50.330Z,99.58
2023-02-18T12:57:41.568Z,99.47
2023-02-18T13:00:18.065Z,99.61
2023-02-18T13:03:16.541Z,99.86
2023-02-18T13:06:13.563Z,99.99
2023-02-18T13:08:53.519Z,99.78
2023-02-18T13:11:31.930Z,99.35
2023-02-18T13:14:08.972Z,99.58
2023-02-18T13:16:36.618Z,99.13
2023-02-18T13:19:21.469Z,100.00
2023-02-18T13:21:54.566Z,99.53
2023-02-18T13:24:34.750Z,99.92
2023-02-18T13:27:13.094Z,99.68
2023-02-18T13:29:52.626Z,98.98
2023-02-18T13:32:29.545Z,98.64
2023-02-18T13:35:14.136Z,99.30
2023-02-18T13:37:50.205Z,98.88
2023-02-18T13:40:22.891Z,98.40
2023-02-18T13:42:53.574Z,98.71
2023-02-18T13:45:31.936Z,98.68
2023-02-18T13:48:00.263Z,98.27
2023-02-18T13:50:28.090Z,98.36
2023-02-18T13:53:13.147Z,98.44
2023-02-18T13:55:46.583Z,98.28
2023-02-18T13:58:29.114Z,99.08
2023-02-18T14:01:02.098Z,98.38
2023-02-18T14:03:43.724Z,98.38
2023-02-18T14:06:28.045Z,97.19
2023-02-18T14:09:12.561Z,97.64
2023-02-18T14:11:53.495Z,96.81
2023-02-18T14:14:39.243Z,95.92
2023-02-18T14:17:20.659Z,94.58
2023-02-18T14:20:10.323Z,92.87
2023-02-18T14:22:39.725Z,91.17
2023-02-18T14:25:09.109Z,90.96
2023-02-18T14:27:37.420Z,90.22
2023-02-18T14:30:07.265Z,89.67
2023-02-18T14:32:34.524Z,89.47
2023-02-18T14:35:25.168Z,91.09
2023-02-18T14:38:13.336Z,88.96
2023-02-18T14:40:48.903Z,88.51
2023-02-18T14:43:33.324Z,89.63
2023-02-18T14:46:11.717Z,91.11
2023-02-18T14:49:04.248Z,91.75
2023-02-18T14:51:32.350Z,90.50
2023-02-18T14:54:06.241Z,91.19
2023-02-18T14:56:38.661Z,91.74
2023-02-18T14:59:06.231Z,91.14
2023-02-18T15:01:35.075Z,90.71
2023-02-18T15:04:03.353Z,91.44
2023-02-18T15:06:33.420Z,92.16
2023-02-18T15:09:01.545Z,92.88
2023-02-18T15:11:40.835Z,95.32
2023-02-18T15:14:30.501Z,95.53
2023-02-18T15:16:58.611Z,93.78
2023-02-18T15:19:28.586Z,93.01
2023-02-18T15:21:57.136Z,91.67
2023-02-18T15:24:26.517Z,91.20
2023-02-18T15:26:56.221Z,90.82
2023-02-18T15:29:25.535Z,90.20
2023-02-18T15:31:52.564Z,88.68
2023-02-18T15:34:39.541Z,89.95
2023-02-18T15:37:08.291Z,88.01
2023-02-18T15:39:38.533Z,87.91
2023-02-18T15:42:17.179Z,89.33
2023-02-18T15:44:53.537Z,89.04
2023-02-18T15:47:21.545Z,88.35
2023-02-18T15:49:54.025Z,88.83
2023-02-18T15:52:29.277Z,89.65
2023-02-18T15:55:00.355Z,89.40
2023-02-18T15:57:29.575Z,89.60
2023-02-18T16:00:16.097Z,91.22
2023-02-18T16:02:55.621Z,91.18
2023-02-18T16:05:26.233Z,91.17
2023-02-18T16:07:58.364Z,91.36
2023-02-18T16:10:36.783Z,91.27
2023-02-18T16:13:04.776Z,91.95
2023-02-18T16:15:43.112Z,92.84
2023-02-18T16:18:42.422Z,93.57
2023-02-18T16:21:17.824Z,93.18
2023-02-18T16:23:54.359Z,92.55
2023-02-18T16:26:31.124Z,92.87
2023-02-18T16:29:15.102Z,94.23
2023-02-18T16:31:42.695Z,92.95
2023-02-18T16:34:09.299Z,93.36
2023-02-18T16:36:35.752Z,93.40
2023-02-18T16:39:02.215Z,93.47
2023-02-18T16:41:29.254Z,93.53
2023-02-18T16:43:55.780Z,93.78
2023-02-18T16:46:24.187Z,93.68
2023-02-18T16:48:54.910Z,93.60
2023-02-18T16:51:29.672Z,93.81
2023-02-18T16:53:56.390Z,92.94
2023-02-18T16:56:25.406Z,93.01
2023-02-18T16:58:52.326Z,92.94
2023-02-18T17:01:24.109Z,93.29
2023-02-18T17:03:51.774Z,92.82
2023-02-18T17:06:19.084Z,93.02
2023-02-18T17:08:46.037Z,92.93
2023-02-18T17:11:20.852Z,93.38
2023-02-18T17:13:49.000Z,93.20
2023-02-18T17:16:16.301Z,93.60
2023-02-18T17:18:43.754Z,93.60
2023-02-18T17:21:15.313Z,94.38
2023-02-18T17:23:42.495Z,93.94
2023-02-18T17:26:27.052Z,94.91
2023-02-18T17:28:55.569Z,94.23
2023-02-18T17:31:26.451Z,94.55
2023-02-18T17:33:58.694Z,95.12
2023-02-18T17:36:25.749Z,95.32
2023-02-18T17:38:52.375Z,95.50
2023-02-18T17:41:19.207Z,95.73
2023-02-18T17:43:45.752Z,95.83
2023-02-18T17:46:14.253Z,96.19
2023-02-18T17:48:41.313Z,96.33
2023-02-18T17:51:08.394Z,96.18
2023-02-18T17:53:35.433Z,96.35
2023-02-18T17:56:02.194Z,95.95
2023-02-18T17:58:28.563Z,96.00
2023-02-18T18:00:57.439Z,95.80
2023-02-18T18:03:23.962Z,95.50
2023-02-18T18:05:52.090Z,95.02
2023-02-18T18:08:19.078Z,95.01
2023-02-18T18:10:58.574Z,95.69
2023-02-18T18:13:27.960Z,94.55
2023-02-18T18:15:56.865Z,94.84
2023-02-18T18:18:24.757Z,94.81
2023-02-18T18:20:54.287Z,94.88
2023-02-18T18:23:21.606Z,94.73
2023-02-18T18:25:56.073Z,95.19
2023-02-18T18:28:23.230Z,94.73
2023-02-18T18:30:52.278Z,94.74
2023-02-18T18:33:26.039Z,94.90
2023-02-18T18:35:54.358Z,94.88
2023-02-18T18:38:22.656Z,94.84
2023-02-18T18:40:50.316Z,94.83
2023-02-18T18:43:21.573Z,95.11
2023-02-18T18:45:49.319Z,95.18
2023-02-18T18:48:16.592Z,94.93
2023-02-18T18:50:43.337Z,95.10
2023-02-18T18:53:24.825Z,96.21
2023-02-18T18:55:54.584Z,95.68
2023-02-18T18:58:24.152Z,95.61
2023-02-18T19:00:54.216Z,95.84
2023-02-18T19:03:22.239Z,95.63
2023-02-18T19:05:49.875Z,95.72
2023-02-18T19:08:17.906Z,95.78
2023-02-18T19:10:50.095Z,95.94
2023-02-18T19:13:20.066Z,95.94
2023-02-18T19:15:48.392Z,95.91
2023-02-18T19:18:17.212Z,95.92
2023-02-18T19:20:44.204Z,95.81
2023-02-18T19:23:10.862Z,95.76
2023-02-18T19:25:38.819Z,95.67
2023-02-18T19:28:06.205Z,95.48
2023-02-18T19:30:35.916Z,95.52
2023-02-18T19:33:05.198Z,95.35
2023-02-18T19:35:32.637Z,95.06
2023-02-18T19:37:59.496Z,95.22
2023-02-18T19:40:29.628Z,95.54
2023-02-18T19:42:56.508Z,95.48
2023-02-18T19:45:23.312Z,95.58
2023-02-18T19:47:57.621Z,95.91
2023-02-18T19:50:25.801Z,95.88
2023-02-18T19:52:53.826Z,95.89
2023-02-18T19:55:20.340Z,95.80
2023-02-18T19:57:46.737Z,96.03
2023-02-18T20:00:15.996Z,95.57
2023-02-18T20:02:42.934Z,95.68
2023-02-18T20:05:11.389Z,95.66
2023-02-18T20:07:37.919Z,95.38
2023-02-18T20:10:10.200Z,95.76
2023-02-18T20:12:36.715Z,95.66
2023-02-18T20:15:04.017Z,95.58
2023-02-18T20:17:31.834Z,95.71
2023-02-18T20:19:58.363Z,95.55
2023-02-18T20:22:25.398Z,95.67
2023-02-18T20:24:51.820Z,95.75
2023-02-18T20:27:18.295Z,95.72
2023-02-18T20:29:44.916Z,95.58
2023-02-18T20:32:11.463Z,95.41
2023-02-18T20:34:38.033Z,95.55
2023-02-18T20:37:04.426Z,95.33
2023-02-18T20:39:31.031Z,95.52
2023-02-18T20:41:59.318Z,95.36
2023-02-18T20:44:29.483Z,95.50
2023-02-18T20:46:55.939Z,95.67
2023-02-18T20:49:22.574Z,95.79
2023-02-18T20:51:49.106Z,95.82
2023-02-18T20:54:19.604Z,95.97
2023-02-18T20:56:48.632Z,96.08
2023-02-18T20:59:17.734Z,96.28
2023-02-18T21:01:45.383Z,96.07
2023-02-18T21:04:13.568Z,96.32
2023-02-18T21:06:39.996Z,96.32
2023-02-18T21:09:06.510Z,96.38
2023-02-18T21:11:33.345Z,96.22
2023-02-18T21:14:00.064Z,96.29
2023-02-18T21:16:28.867Z,96.36
2023-02-18T21:18:55.429Z,96.12
2023-02-18T21:21:23.608Z,96.16
2023-02-18T21:23:50.938Z,96.00
2023-02-18T21:26:20.902Z,96.23
2023-02-18T21:28:49.110Z,95.91
2023-02-18T21:31:22.908Z,96.01
2023-02-18T21:33:49.942Z,95.89
2023-02-18T21:36:16.963Z,95.74
2023-02-18T21:38:44.812Z,95.77
2023-02-18T21:41:12.510Z,95.65
2023-02-18T21:43:39.314Z,95.74
2023-02-18T21:46:10.200Z,95.93
2023-02-18T21:48:55.128Z,95.75
2023-02-18T21:51:40.184Z,95.61
2023-02-18T21:54:07.043Z,95.71
2023-02-18T21:56:33.830Z,95.46
2023-02-18T21:59:00.302Z,95.43
2023-02-18T22:01:27.767Z,95.54
2023-02-18T22:03:57.303Z,95.52
2023-02-18T22:06:23.765Z,95.36
2023-02-18T22:08:50.160Z,95.17
2023-02-18T22:11:18.146Z,95.30
2023-02-18T22:13:44.618Z,95.06
2023-02-18T22:16:11.068Z,95.20
2023-02-18T22:18:37.552Z,95.14
2023-02-18T22:21:08.611Z,95.33
2023-02-18T22:23:35.486Z,95.02
2023-02-18T22:26:06.812Z,95.16
2023-02-18T22:28:34.160Z,94.98
2023-02-18T22:31:05.354Z,94.84
2023-02-18T22:33:31.814Z,94.97
2023-02-18T22:36:04.872Z,95.07
2023-02-18T22:38:32.940Z,95.09
2023-02-18T22:41:07.738Z,95.16
2023-02-18T22:43:35.040Z,95.09
2023-02-18T22:46:06.125Z,95.35
2023-02-18T22:48:34.396Z,95.19
2023-02-18T22:51:12.897Z,95.37
2023-02-18T22:53:40.151Z,95.13
2023-02-18T22:56:09.721Z,95.05
2023-02-18T22:58:36.618Z,94.97
2023-02-18T23:01:04.500Z,95.05
2023-02-18T23:03:31.160Z,94.83
2023-02-18T23:06:02.606Z,95.18
2023-02-18T23:08:29.462Z,94.67
2023-02-18T23:11:04.057Z,95.38
2023-02-18T23:13:31.052Z,94.82
2023-02-18T23:16:01.908Z,94.97
2023-02-18T23:18:29.238Z,94.57
2023-02-18T23:21:18.422Z,95.72
2023-02-18T23:23:46.267Z,94.63
2023-02-18T23:26:13.198Z,94.58
2023-02-18T23:28:48.762Z,94.59
2023-02-18T23:31:23.555Z,94.54
2023-02-18T23:33:53.779Z,94.73
2023-02-18T23:36:23.484Z,94.73
2023-02-18T23:39:00.556Z,94.58
2023-02-18T23:41:28.478Z,94.60
2023-02-18T23:43:55.454Z,94.48
2023-02-18T23:46:25.710Z,94.65
2023-02-18T23:48:52.064Z,95.75
2023-02-18T23:51:21.114Z,94.37
2023-02-18T23:53:47.525Z,94.62
2023-02-18T23:56:15.063Z,94.86
2023-02-18T23:58:43.503Z,94.28
